Time;durP1;ratioP1;P1;durP2;ratioP2;P2;SDS_P1;SDS_P2;PMS_P1;PMS_P2;Temp;Humidity;BMP_temperature;BMP_pressure;BME280_temperature;BME280_humidity;BME280_pressure;Samples;Min_cycle;Max_cycle;Signal;HPM_P1;HPM_P2
2022/03/06 00:02:51;;;;;;;6.45;4.00;;;20.90;61.00;;;;;;7869556;28;20213;-47
2022/03/06 00:06:37;;;;;;;6.60;4.18;;;20.80;61.00;;;;;;7869619;28;20178;-46
2022/03/06 00:10:23;;;;;;;6.50;4.30;;;20.80;60.50;;;;;;7869460;28;20173;-47
2022/03/06 00:14:08;;;;;;;7.25;3.90;;;20.80;60.40;;;;;;7869546;28;20266;-46
2022/03/06 00:17:54;;;;;;;6.65;4.00;;;20.80;60.60;;;;;;7869574;28;20250;-48
2022/03/06 00:21:40;;;;;;;6.80;4.68;;;20.70;60.50;;;;;;7868989;28;20288;-46
2022/03/06 00:25:26;;;;;;;7.50;4.90;;;20.70;60.50;;;;;;7869348;28;20254;-45
2022/03/06 00:29:11;;;;;;;8.15;4.30;;;20.70;60.50;;;;;;7869114;28;20300;-46
2022/03/06 00:32:57;;;;;;;6.95;4.18;;;20.70;60.50;;;;;;7869277;28;20193;-46
2022/03/06 00:36:42;;;;;;;8.77;4.38;;;20.60;60.00;;;;;;7869211;28;20188;-46
2022/03/06 00:40:28;;;;;;;6.32;3.88;;;20.60;60.10;;;;;;7869007;28;20177;-46
2022/03/06 00:44:13;;;;;;;7.03;4.00;;;20.60;60.30;;;;;;7869150;28;20212;-47
2022/03/06 00:47:59;;;;;;;6.05;4.18;;;20.60;60.10;;;;;;7869110;28;20201;-46
2022/03/06 00:51:44;;;;;;;6.88;4.70;;;20.50;60.00;;;;;;7869470;28;20197;-47
2022/03/06 00:55:31;;;;;;;6.47;4.10;;;20.50;60.00;;;;;;7869097;28;20643;-46
2022/03/06 00:59:16;;;;;;;5.57;3.75;;;20.50;60.00;;;;;;7872568;28;20185;-47
2022/03/06 01:03:06;;;;;;;6.82;4.65;;;20.50;60.00;;;;;;7875091;28;20315;-46
2022/03/06 01:06:52;;;;;;;8.20;5.10;;;20.40;60.10;;;;;;7875282;28;20196;-46
2022/03/06 01:10:39;;;;;;;7.88;4.40;;;20.40;60.00;;;;;;7874900;28;20674;-46
2022/03/06 01:14:25;;;;;;;7.38;4.72;;;20.40;60.00;;;;;;7874266;28;20173;-48
2022/03/06 01:18:10;;;;;;;7.57;4.82;;;20.40;60.00;;;;;;7874707;28;20256;-48
2022/03/06 01:21:56;;;;;;;8.00;4.60;;;20.40;60.10;;;;;;7874179;28;20250;-46
2022/03/06 01:25:41;;;;;;;7.13;4.35;;;20.40;60.00;;;;;;7874938;28;20182;-48
2022/03/06 01:29:27;;;;;;;8.23;4.60;;;20.40;59.90;;;;;;7874078;28;20288;-46
2022/03/06 01:33:12;;;;;;;8.57;4.85;;;20.30;59.90;;;;;;7874167;28;20194;-46
2022/03/06 01:36:58;;;;;;;7.57;4.53;;;20.30;59.90;;;;;;7874100;28;20181;-47
2022/03/06 01:40:43;;;;;;;8.57;4.90;;;20.30;59.90;;;;;;7873760;28;20205;-46
2022/03/06 01:44:29;;;;;;;8.23;4.75;;;20.30;59.90;;;;;;7874223;28;20181;-46
2022/03/06 01:48:14;;;;;;;9.57;4.63;;;20.20;59.90;;;;;;7873882;28;20213;-46
2022/03/06 01:52:00;;;;;;;10.73;4.43;;;20.30;59.90;;;;;;7873547;28;20197;-46
2022/03/06 01:55:46;;;;;;;7.35;4.43;;;20.20;59.90;;;;;;7873693;28;20173;-46
2022/03/06 01:59:32;;;;;;;8.52;5.03;;;20.20;59.80;;;;;;7873271;28;20177;-46
2022/03/06 02:03:18;;;;;;;8.10;4.90;;;20.20;59.80;;;;;;7873177;28;20308;-46
2022/03/06 02:07:04;;;;;;;8.23;4.82;;;20.20;59.80;;;;;;7873263;28;20284;-47
2022/03/06 02:10:52;;;;;;;8.88;5.00;;;20.20;59.90;;;;;;7872336;28;20169;-46
2022/03/06 02:14:38;;;;;;;8.50;5.15;;;20.20;59.80;;;;;;7873150;28;20176;-48
2022/03/06 02:18:23;;;;;;;10.10;5.28;;;20.20;59.80;;;;;;7873023;28;20181;-46
2022/03/06 02:22:09;;;;;;;8.32;4.93;;;20.10;59.60;;;;;;7872616;28;20569;-46
2022/03/06 02:25:54;;;;;;;8.90;4.93;;;20.10;59.60;;;;;;7872795;28;20177;-45
2022/03/06 02:29:41;;;;;;;7.85;4.65;;;20.10;59.70;;;;;;7872436;28;20212;-46
2022/03/06 02:33:27;;;;;;;9.07;5.00;;;20.10;59.70;;;;;;7872336;28;20197;-47
2022/03/06 02:37:15;;;;;;;9.63;5.18;;;20.10;59.70;;;;;;7872423;28;20181;-45
2022/03/06 02:41:00;;;;;;;8.32;5.05;;;20.10;59.80;;;;;;7872191;28;20194;-48
2022/03/06 02:44:46;;;;;;;11.48;5.60;;;20.10;59.70;;;;;;7872143;28;20234;-45
2022/03/06 02:48:31;;;;;;;9.77;5.10;;;20.10;59.70;;;;;;7871948;28;20228;-48
2022/03/06 02:52:18;;;;;;;10.02;5.05;;;20.10;59.80;;;;;;7872474;28;20201;-44
2022/03/06 02:56:03;;;;;;;8.15;5.00;;;20.10;59.80;;;;;;7872247;28;20278;-46
2022/03/06 02:59:49;;;;;;;8.95;5.10;;;20.00;59.60;;;;;;7871343;28;20174;-47
2022/03/06 03:03:39;;;;;;;7.65;5.20;;;20.00;59.60;;;;;;7871429;28;20726;-46
2022/03/06 03:07:25;;;;;;;9.43;5.25;;;20.00;59.70;;;;;;7871439;28;20411;-46
2022/03/06 03:11:10;;;;;;;10.38;4.88;;;20.00;59.70;;;;;;7871081;28;20193;-46
2022/03/06 03:14:56;;;;;;;11.38;5.80;;;20.00;59.80;;;;;;7871134;28;20184;-46
2022/03/06 03:18:41;;;;;;;9.43;5.28;;;20.00;59.60;;;;;;7871201;28;20288;-46
2022/03/06 03:22:27;;;;;;;12.43;5.38;;;20.00;59.50;;;;;;7869969;28;20201;-46
2022/03/06 03:26:12;;;;;;;10.27;5.40;;;20.00;59.40;;;;;;7871383;28;20177;-48
2022/03/06 03:29:58;;;;;;;12.02;5.82;;;20.00;59.50;;;;;;7870927;28;20197;-46
2022/03/06 03:33:43;;;;;;;9.38;5.43;;;20.00;59.30;;;;;;7870979;28;20204;-46
2022/03/06 03:37:29;;;;;;;9.02;5.18;;;19.90;59.40;;;;;;7870683;28;20571;-47
2022/03/06 03:41:14;;;;;;;11.65;5.55;;;19.90;59.40;;;;;;7870304;28;20201;-46
2022/03/06 03:45:00;;;;;;;7.82;4.97;;;19.90;59.40;;;;;;7870384;28;20181;-46
2022/03/06 03:48:46;;;;;;;7.85;5.25;;;19.90;59.40;;;;;;7870168;28;20205;-46
2022/03/06 03:52:31;;;;;;;9.93;5.57;;;19.90;59.40;;;;;;7869852;28;20196;-46
2022/03/06 03:56:17;;;;;;;10.05;5.47;;;19.90;59.40;;;;;;7870067;28;20166;-46
2022/03/06 04:00:05;;;;;;;11.07;5.90;;;19.90;59.40;;;;;;7869707;28;20224;-45
2022/03/06 04:03:50;;;;;;;9.77;5.10;;;19.90;59.40;;;;;;7869563;28;20205;-46
2022/03/06 04:07:36;;;;;;;9.55;5.28;;;19.90;60.00;;;;;;7869689;28;20232;-46
2022/03/06 04:11:21;;;;;;;9.95;5.53;;;19.90;59.30;;;;;;7869348;28;20227;-46
2022/03/06 04:15:07;;;;;;;7.82;5.20;;;19.80;59.30;;;;;;7869599;28;20211;-47
2022/03/06 04:18:53;;;;;;;9.38;5.60;;;19.90;59.30;;;;;;7869558;28;20177;-46
2022/03/06 04:22:38;;;;;;;8.93;5.35;;;19.90;59.30;;;;;;7869199;28;20747;-46
2022/03/06 04:26:24;;;;;;;10.30;5.15;;;19.80;59.30;;;;;;7869416;28;20188;-45
2022/03/06 04:30:10;;;;;;;8.13;4.88;;;19.80;59.30;;;;;;7868958;28;20613;-47
2022/03/06 04:33:56;;;;;;;10.18;4.80;;;19.80;59.30;;;;;;7869204;28;20197;-46
2022/03/06 04:37:41;;;;;;;7.95;5.07;;;19.80;59.30;;;;;;7869448;28;20203;-47
2022/03/06 04:41:27;;;;;;;9.52;5.07;;;19.80;59.40;;;;;;7868884;28;20222;-46
2022/03/06 04:45:12;;;;;;;8.55;5.18;;;19.80;59.40;;;;;;7869023;28;20181;-46
2022/03/06 04:48:58;;;;;;;11.35;6.22;;;19.80;59.40;;;;;;7869058;28;20690;-45
2022/03/06 04:52:43;;;;;;;8.98;5.30;;;19.80;59.30;;;;;;7869305;28;20193;-47
2022/03/06 04:56:29;;;;;;;7.35;5.10;;;19.80;59.30;;;;;;7869373;28;20223;-47
2022/03/06 05:00:15;;;;;;;9.75;4.97;;;19.80;59.40;;;;;;7868901;28;20185;-46
2022/03/06 05:04:01;;;;;;;9.20;5.03;;;19.70;59.30;;;;;;7857171;28;20251;-45
2022/03/06 05:07:46;;;;;;;13.57;5.15;;;19.80;59.70;;;;;;7838871;28;20213;-45
2022/03/06 05:11:33;;;;;;;11.27;5.43;;;19.80;59.60;;;;;;7837383;28;20226;-45
2022/03/06 05:15:19;;;;;;;10.75;5.28;;;19.70;59.40;;;;;;7852787;28;20178;-45
2022/03/06 05:19:04;;;;;;;13.15;5.05;;;19.70;59.50;;;;;;7837167;28;20182;-47
2022/03/06 05:22:50;;;;;;;12.55;5.45;;;19.70;59.40;;;;;;7847996;28;20198;-45
2022/03/06 05:26:35;;;;;;;11.55;5.70;;;19.70;59.50;;;;;;7853849;28;20264;-45
2022/03/06 05:30:21;;;;;;;9.48;5.50;;;19.70;59.50;;;;;;7843825;28;20181;-45
2022/03/06 05:34:06;;;;;;;10.18;5.03;;;19.60;59.50;;;;;;7864851;28;20204;-45
2022/03/06 05:37:52;;;;;;;9.18;5.00;;;19.70;59.50;;;;;;7851315;28;20192;-46
2022/03/06 05:41:37;;;;;;;8.50;5.40;;;19.70;59.40;;;;;;7853794;28;20209;-46
2022/03/06 05:45:23;;;;;;;8.95;5.07;;;19.70;59.40;;;;;;7871698;28;20170;-46
2022/03/06 05:49:12;;;;;;;9.93;5.70;;;19.70;59.40;;;;;;7873456;28;20232;-45
2022/03/06 05:52:58;;;;;;;9.48;5.32;;;19.70;59.40;;;;;;7873665;28;20193;-45
2022/03/06 05:56:43;;;;;;;8.02;5.30;;;19.70;59.30;;;;;;7873915;28;20205;-45
2022/03/06 06:00:29;;;;;;;9.07;5.18;;;19.80;59.40;;;;;;7873206;28;20173;-46
2022/03/06 06:04:14;;;;;;;9.40;5.72;;;19.80;59.40;;;;;;7873061;28;20588;-45
2022/03/06 06:08:00;;;;;;;12.48;5.13;;;19.80;59.30;;;;;;7873234;28;20241;-47
2022/03/06 06:11:46;;;;;;;10.25;5.10;;;19.80;59.30;;;;;;7872951;28;20268;-46
2022/03/06 06:15:31;;;;;;;9.93;5.78;;;19.80;59.30;;;;;;7844895;28;20213;-44
2022/03/06 06:19:17;;;;;;;8.57;5.20;;;19.80;59.30;;;;;;7841228;28;20239;-45
2022/03/06 06:23:03;;;;;;;9.75;5.45;;;19.80;59.30;;;;;;7841685;28;20194;-45
2022/03/06 06:26:51;;;;;;;9.48;5.50;;;19.90;59.30;;;;;;7871675;28;20189;-45
2022/03/06 06:30:37;;;;;;;9.30;5.00;;;19.90;59.20;;;;;;7842334;28;20728;-46
2022/03/06 06:34:23;;;;;;;8.82;5.28;;;19.90;59.10;;;;;;7841660;28;20566;-46
2022/03/06 06:38:08;;;;;;;10.65;5.57;;;19.90;59.10;;;;;;7841488;28;20224;-45
2022/03/06 06:41:54;;;;;;;10.98;5.15;;;19.90;59.10;;;;;;7841184;28;20288;-44
2022/03/06 06:45:39;;;;;;;10.02;5.10;;;19.90;59.10;;;;;;7841171;28;20182;-45
2022/03/06 06:49:25;;;;;;;9.55;5.30;;;19.90;59.00;;;;;;7840936;28;20820;-45
2022/03/06 06:53:10;;;;;;;8.05;5.25;;;19.90;59.00;;;;;;7840747;28;20202;-47
2022/03/06 06:56:56;;;;;;;8.70;5.00;;;20.00;59.00;;;;;;7839786;28;20197;-45
2022/03/06 07:00:41;;;;;;;9.45;5.15;;;20.00;59.00;;;;;;7840770;28;20243;-45
2022/03/06 07:04:27;;;;;;;9.82;5.25;;;20.00;59.00;;;;;;7840421;28;20194;-46
2022/03/06 07:08:13;;;;;;;7.68;4.68;;;20.00;59.00;;;;;;7840190;28;20218;-45
2022/03/06 07:11:58;;;;;;;9.98;5.00;;;20.00;58.90;;;;;;7844048;28;20209;-45
2022/03/06 07:15:44;;;;;;;8.45;4.97;;;20.10;58.90;;;;;;7871367;28;20185;-46
2022/03/06 07:19:29;;;;;;;7.80;5.00;;;20.00;58.80;;;;;;7871056;28;20256;-47
2022/03/06 07:23:15;;;;;;;10.05;4.70;;;20.10;58.90;;;;;;7870967;28;20204;-45
2022/03/06 07:27:00;;;;;;;9.48;5.25;;;20.00;58.70;;;;;;7870788;28;20205;-45
2022/03/06 07:30:48;;;;;;;8.60;5.22;;;20.00;58.70;;;;;;7843586;28;20182;-46
2022/03/06 07:34:33;;;;;;;8.10;5.75;;;20.10;58.70;;;;;;7847936;28;20173;-45
2022/03/06 07:38:19;;;;;;;10.93;6.45;;;20.10;58.80;;;;;;7870565;28;20185;-47
2022/03/06 07:42:04;;;;;;;14.43;6.70;;;20.10;59.00;;;;;;7869581;28;20193;-44
2022/03/06 07:45:50;;;;;;;17.88;8.07;;;20.10;59.50;;;;;;7852534;28;20186;-44
2022/03/06 07:49:35;;;;;;;16.80;9.15;;;20.10;59.30;;;;;;7838919;28;20205;-44
2022/03/06 07:53:21;;;;;;;15.23;9.23;;;20.10;59.10;;;;;;7838992;28;20205;-46
2022/03/06 07:57:06;;;;;;;12.70;7.97;;;20.10;59.00;;;;;;7839146;28;20643;-45
2022/03/06 08:00:52;;;;;;;22.73;8.18;;;20.10;58.70;;;;;;7838549;28;20182;-45
2022/03/06 08:04:37;;;;;;;16.88;8.40;;;20.10;58.70;;;;;;7838882;28;20265;-46
2022/03/06 08:08:23;;;;;;;16.70;8.15;;;20.10;58.60;;;;;;7841976;28;20287;-46
2022/03/06 08:12:08;;;;;;;15.80;8.30;;;20.10;59.00;;;;;;7869446;28;20239;-45
2022/03/06 08:15:54;;;;;;;17.55;7.63;;;20.10;58.90;;;;;;7840066;28;20717;-45
2022/03/06 08:19:39;;;;;;;14.43;8.40;;;20.10;59.20;;;;;;7840584;28;20189;-46
2022/03/06 08:23:25;;;;;;;17.40;9.13;;;20.10;58.90;;;;;;7851268;28;20212;-45
2022/03/06 08:27:10;;;;;;;23.73;9.13;;;20.20;58.70;;;;;;7851993;28;20670;-46
2022/03/06 08:30:56;;;;;;;13.65;8.77;;;20.10;58.50;;;;;;7849681;28;20190;-46
2022/03/06 08:34:42;;;;;;;20.10;8.48;;;20.10;58.40;;;;;;7846663;28;20186;-47
2022/03/06 08:38:27;;;;;;;12.13;7.93;;;20.10;58.30;;;;;;7838302;28;20264;-47
2022/03/06 08:42:13;;;;;;;19.52;8.30;;;20.20;58.30;;;;;;7838349;28;20205;-45
2022/03/06 08:45:59;;;;;;;15.32;8.00;;;20.10;58.30;;;;;;7850040;28;20682;-46
2022/03/06 08:49:45;;;;;;;11.90;7.90;;;20.10;58.20;;;;;;7853319;28;20571;-46
2022/03/06 08:53:31;;;;;;;12.18;6.93;;;20.10;58.10;;;;;;7851502;28;20202;-46
2022/03/06 08:57:17;;;;;;;13.23;7.38;;;20.10;58.10;;;;;;7837835;28;20186;-46
2022/03/06 09:01:02;;;;;;;14.98;6.80;;;20.10;58.20;;;;;;7837249;28;20221;-48
2022/03/06 09:04:48;;;;;;;13.35;6.97;;;20.20;58.40;;;;;;7847184;28;20196;-45
2022/03/06 09:08:34;;;;;;;12.32;7.05;;;20.20;58.40;;;;;;7843959;28;20197;-46
2022/03/06 09:12:19;;;;;;;10.25;6.35;;;20.10;58.30;;;;;;7837510;28;20194;-46
2022/03/06 09:16:05;;;;;;;11.50;6.63;;;20.20;58.20;;;;;;7837705;28;20178;-46
2022/03/06 09:19:51;;;;;;;8.90;6.00;;;20.20;58.10;;;;;;7840461;28;20174;-46
2022/03/06 09:23:36;;;;;;;9.45;5.45;;;20.20;58.10;;;;;;7843642;28;20251;-46
2022/03/06 09:27:22;;;;;;;11.73;6.45;;;20.20;58.20;;;;;;7843440;28;20241;-46
2022/03/06 09:31:07;;;;;;;10.38;5.93;;;20.10;58.00;;;;;;7843190;28;20272;-45
2022/03/06 09:34:53;;;;;;;8.48;5.85;;;20.30;58.10;;;;;;7843156;28;20235;-46
2022/03/06 09:38:38;;;;;;;11.90;5.95;;;20.20;58.10;;;;;;7843289;28;20551;-45
2022/03/06 09:42:24;;;;;;;8.00;5.43;;;20.20;58.10;;;;;;7842813;28;20256;-45
2022/03/06 09:46:09;;;;;;;9.77;5.70;;;20.20;58.00;;;;;;7844032;28;20178;-46
2022/03/06 09:49:55;;;;;;;8.75;5.28;;;20.20;58.00;;;;;;7842633;28;20217;-46
2022/03/06 09:53:40;;;;;;;9.93;5.35;;;20.20;58.00;;;;;;7842752;28;20201;-46
2022/03/06 09:57:26;;;;;;;8.30;5.20;;;20.20;58.00;;;;;;7842646;28;20186;-46
2022/03/06 10:01:12;;;;;;;13.38;5.78;;;20.20;58.20;;;;;;7842221;28;20225;-46
2022/03/06 10:04:58;;;;;;;14.30;5.55;;;20.30;58.30;;;;;;7842607;28;20178;-46
2022/03/06 10:08:43;;;;;;;13.18;5.30;;;20.20;58.40;;;;;;7842516;28;20206;-46
2022/03/06 10:12:31;;;;;;;13.27;5.63;;;20.20;58.10;;;;;;7841943;28;20190;-46
2022/03/06 10:16:18;;;;;;;15.63;6.03;;;20.20;58.10;;;;;;7842171;28;20174;-46
2022/03/06 10:20:06;;;;;;;8.52;5.20;;;20.20;58.10;;;;;;7870830;28;20591;-46
2022/03/06 10:24:06;;;;;;;11.65;5.13;;;20.10;58.00;;;;;;7872680;28;20571;-45
2022/03/06 10:27:54;;;;;;;12.15;5.60;;;20.20;58.10;;;;;;7873077;28;20209;-46
2022/03/06 10:31:55;;;;;;;12.63;5.50;;;20.10;57.80;;;;;;7867664;28;20197;-45
2022/03/06 10:35:44;;;;;;;8.82;5.13;;;20.10;58.00;;;;;;7842451;28;20558;-47
2022/03/06 10:39:41;;;;;;;7.93;5.78;;;20.10;58.10;;;;;;7841061;28;20203;-46
2022/03/06 10:43:34;;;;;;;7.93;5.40;;;20.10;58.10;;;;;;7841343;28;20214;-47
2022/03/06 10:47:20;;;;;;;5.88;4.50;;;20.10;58.00;;;;;;7841508;28;20205;-46
2022/03/06 10:51:08;;;;;;;7.05;5.28;;;20.10;58.10;;;;;;7840944;28;20213;-46
2022/03/06 10:54:56;;;;;;;8.90;5.15;;;20.10;58.00;;;;;;7850262;28;20181;-45
2022/03/06 10:58:45;;;;;;;7.30;5.38;;;20.10;57.80;;;;;;7845279;28;20278;-46
2022/03/06 11:02:32;;;;;;;9.90;4.90;;;20.10;58.00;;;;;;7840300;28;20579;-47
2022/03/06 11:06:19;;;;;;;9.07;5.35;;;20.10;57.90;;;;;;7840614;28;20224;-45
2022/03/06 11:10:05;;;;;;;7.72;5.38;;;20.10;57.80;;;;;;7840491;28;20212;-46
2022/03/06 11:13:54;;;;;;;7.18;5.07;;;20.10;57.90;;;;;;7840390;28;20205;-46
2022/03/06 11:17:40;;;;;;;7.78;5.35;;;20.10;58.70;;;;;;7840500;28;20204;-46
2022/03/06 11:21:28;;;;;;;7.53;5.03;;;20.10;58.00;;;;;;7839853;28;20725;-46
2022/03/06 11:25:20;;;;;;;9.95;5.50;;;20.10;58.00;;;;;;7840048;28;20247;-46
2022/03/06 11:29:46;;;;;;;8.60;5.90;;;20.10;58.00;;;;;;7839772;28;20205;-45
2022/03/06 11:33:32;;;;;;;10.70;6.13;;;20.10;57.90;;;;;;7839753;28;20198;-46
2022/03/06 11:37:17;;;;;;;12.02;5.65;;;20.10;57.70;;;;;;7839674;28;20182;-45
2022/03/06 11:41:10;;;;;;;8.45;5.57;;;20.10;57.80;;;;;;7838512;28;20268;-45
2022/03/06 11:44:57;;;;;;;9.30;5.47;;;20.10;58.00;;;;;;7839454;28;20293;-45
2022/03/06 11:48:43;;;;;;;7.22;5.10;;;20.00;57.80;;;;;;7866071;28;20216;-46
2022/03/06 11:52:32;;;;;;;8.35;5.28;;;20.00;58.00;;;;;;7869973;28;20701;-47
2022/03/06 12:00:28;;;;;;;8.85;5.70;;;20.00;57.80;;;;;;7869843;28;20209;-45
2022/03/06 12:04:14;;;;;;;9.93;5.70;;;20.00;57.70;;;;;;7869759;28;20228;-45
2022/03/06 12:08:00;;;;;;;6.88;5.18;;;20.10;57.80;;;;;;7869758;28;20201;-46
2022/03/06 12:11:46;;;;;;;7.43;5.45;;;20.00;57.80;;;;;;7868333;28;20204;-45
2022/03/06 12:15:32;;;;;;;8.63;5.20;;;20.00;57.90;;;;;;7838668;28;20644;-45
2022/03/06 12:19:18;;;;;;;10.20;6.00;;;20.00;58.10;;;;;;7838302;28;20547;-46
2022/03/06 12:23:06;;;;;;;8.90;5.43;;;20.00;57.80;;;;;;7838539;28;20205;-46
2022/03/06 12:26:53;;;;;;;7.22;5.55;;;20.00;57.90;;;;;;7838639;28;20178;-47
2022/03/06 12:30:39;;;;;;;8.50;5.18;;;20.00;57.70;;;;;;7838173;28;20174;-47
2022/03/06 12:34:40;;;;;;;6.63;5.07;;;20.00;57.70;;;;;;7838352;28;20253;-47
2022/03/06 12:38:26;;;;;;;8.68;4.80;;;20.00;57.80;;;;;;7854012;28;20665;-47
2022/03/06 12:42:11;;;;;;;13.13;5.65;;;19.90;57.90;;;;;;7868869;28;20302;-46
2022/03/06 12:45:59;;;;;;;11.13;5.32;;;20.00;57.30;;;;;;7869170;28;20185;-46
2022/03/06 12:49:52;;;;;;;15.68;5.32;;;20.00;57.20;;;;;;7868753;28;20205;-47
2022/03/06 12:53:45;;;;;;;24.65;6.15;;;20.00;57.70;;;;;;7871728;28;20193;-45
2022/03/06 12:57:38;;;;;;;20.55;5.30;;;20.00;57.90;;;;;;7875340;28;20639;-47
2022/03/06 13:01:23;;;;;;;21.83;6.28;;;20.00;58.10;;;;;;7874804;28;20285;-47
2022/03/06 13:05:09;;;;;;;28.83;5.90;;;20.00;58.50;;;;;;7875123;28;20638;-46
2022/03/06 13:08:54;;;;;;;23.85;6.18;;;20.00;58.40;;;;;;7875063;28;20204;-46
2022/03/06 13:12:45;;;;;;;14.75;4.75;;;20.10;58.60;;;;;;7874759;28;20268;-45
2022/03/06 13:16:31;;;;;;;15.38;5.07;;;20.10;59.20;;;;;;7874912;28;20173;-48
2022/03/06 13:20:17;;;;;;;17.75;5.38;;;20.20;59.30;;;;;;7874487;28;20227;-46
2022/03/06 13:24:05;;;;;;;11.68;5.00;;;20.30;58.80;;;;;;7874529;28;20197;-46
2022/03/06 13:27:50;;;;;;;23.23;4.55;;;20.40;59.10;;;;;;7874242;28;20205;-45
2022/03/06 13:31:46;;;;;;;9.35;4.40;;;20.40;59.50;;;;;;7874079;28;20193;-45
2022/03/06 13:35:34;;;;;;;9.60;4.10;;;20.50;60.20;;;;;;7874284;28;20173;-46
2022/03/06 13:39:20;;;;;;;11.23;4.45;;;20.60;60.00;;;;;;7873964;28;20226;-46
2022/03/06 13:43:06;;;;;;;17.45;4.65;;;20.70;60.50;;;;;;7871009;28;20197;-45
2022/03/06 13:46:52;;;;;;;8.15;3.83;;;20.80;60.40;;;;;;7862951;28;20197;-46
2022/03/06 13:50:50;;;;;;;10.32;4.30;;;20.80;61.00;;;;;;7873058;28;20666;-46
2022/03/06 13:54:36;;;;;;;18.35;4.43;;;20.80;61.30;;;;;;7872828;28;20196;-45
2022/03/06 13:58:22;;;;;;;10.32;4.10;;;20.90;61.80;;;;;;7873043;28;20643;-46
2022/03/06 14:02:11;;;;;;;11.38;4.13;;;20.90;62.70;;;;;;7872297;28;20628;-45
2022/03/06 14:05:58;;;;;;;14.30;3.70;;;21.00;62.00;;;;;;7871739;28;20322;-46
2022/03/06 14:09:48;;;;;;;12.30;4.10;;;21.00;62.30;;;;;;7872168;28;20217;-45
2022/03/06 14:13:41;;;;;;;16.85;4.10;;;21.00;61.70;;;;;;7871847;28;20197;-45
2022/03/06 14:17:27;;;;;;;19.00;3.67;;;21.00;61.90;;;;;;7866815;28;20209;-45
2022/03/06 14:21:16;;;;;;;12.43;4.03;;;21.00;62.10;;;;;;7840724;28;20739;-45
2022/03/06 14:25:02;;;;;;;19.33;4.00;;;21.00;61.90;;;;;;7840978;28;20182;-45
2022/03/06 14:29:09;;;;;;;7.57;3.75;;;21.00;62.50;;;;;;7848687;28;20234;-47
2022/03/06 14:32:55;;;;;;;13.65;4.03;;;21.00;62.30;;;;;;7837549;28;20593;-47
2022/03/06 14:36:42;;;;;;;9.63;4.07;;;21.00;62.30;;;;;;7840616;28;20197;-45
2022/03/06 14:40:27;;;;;;;11.50;4.50;;;21.00;62.90;;;;;;7841024;28;20185;-46
2022/03/06 14:44:13;;;;;;;20.50;4.82;;;21.10;63.40;;;;;;7839738;28;20213;-46
2022/03/06 14:47:59;;;;;;;11.35;3.60;;;21.10;63.50;;;;;;7847784;28;20193;-46
2022/03/06 14:51:45;;;;;;;11.55;3.83;;;21.20;63.00;;;;;;7870846;28;20185;-47
2022/03/06 14:55:31;;;;;;;13.68;3.67;;;21.30;63.40;;;;;;7871611;28;20177;-46
2022/03/06 14:59:17;;;;;;;12.95;3.60;;;21.40;63.00;;;;;;7871630;28;20186;-46
2022/03/06 15:03:03;;;;;;;10.73;3.90;;;21.50;62.70;;;;;;7871534;28;20583;-46
2022/03/06 15:06:50;;;;;;;11.52;3.50;;;21.70;62.50;;;;;;7872018;28;20205;-47
2022/03/06 15:10:35;;;;;;;11.27;3.13;;;21.80;62.40;;;;;;7871386;28;20266;-47
2022/03/06 15:14:21;;;;;;;9.32;3.75;;;21.90;62.20;;;;;;7845785;28;20214;-46
2022/03/06 15:18:07;;;;;;;10.98;3.72;;;21.90;61.40;;;;;;7839914;28;20217;-45
2022/03/06 15:21:55;;;;;;;13.02;3.78;;;22.00;61.40;;;;;;7849572;28;20288;-46
2022/03/06 15:25:40;;;;;;;10.18;3.88;;;22.10;61.50;;;;;;7840869;28;20189;-45
2022/03/06 15:29:26;;;;;;;10.73;3.60;;;22.20;61.40;;;;;;7840156;28;20273;-47
2022/03/06 15:33:11;;;;;;;5.32;3.33;;;22.30;61.30;;;;;;7839996;28;20201;-45
2022/03/06 15:36:57;;;;;;;7.90;3.13;;;22.40;61.30;;;;;;7839917;28;20178;-46
2022/03/06 15:40:42;;;;;;;7.30;3.90;;;22.50;61.10;;;;;;7839516;28;20661;-46
2022/03/06 15:44:28;;;;;;;5.50;3.47;;;22.70;61.10;;;;;;7839547;28;20178;-46
2022/03/06 15:48:13;;;;;;;7.38;3.28;;;22.80;60.80;;;;;;7839412;28;20308;-46
2022/03/06 15:51:59;;;;;;;7.75;3.30;;;22.90;60.90;;;;;;7838976;28;20305;-45
2022/03/06 15:55:45;;;;;;;4.63;3.00;;;22.90;60.80;;;;;;7839283;28;20261;-45
2022/03/06 15:59:31;;;;;;;6.35;3.00;;;23.00;61.70;;;;;;7838948;28;20186;-45
2022/03/06 16:03:17;;;;;;;6.80;2.92;;;23.10;60.70;;;;;;7838871;28;20239;-46
2022/03/06 16:07:02;;;;;;;3.92;2.75;;;23.20;60.90;;;;;;7838966;28;20214;-45
2022/03/06 16:10:48;;;;;;;5.75;2.92;;;23.20;60.70;;;;;;7838543;28;20186;-46
2022/03/06 16:14:34;;;;;;;4.53;2.58;;;23.20;60.70;;;;;;7838711;28;20635;-46
2022/03/06 16:18:19;;;;;;;5.20;2.55;;;23.30;60.80;;;;;;7845314;28;20554;-46
2022/03/06 16:22:05;;;;;;;5.65;2.42;;;23.30;60.70;;;;;;7869302;28;20196;-45
2022/03/06 16:25:50;;;;;;;5.40;3.03;;;23.30;60.80;;;;;;7869584;28;20264;-47
2022/03/06 16:29:36;;;;;;;3.70;2.70;;;23.30;60.80;;;;;;7868836;28;20235;-46
2022/03/06 16:33:22;;;;;;;3.92;2.42;;;23.30;60.90;;;;;;7869375;28;20181;-45
2022/03/06 16:37:07;;;;;;;5.68;2.97;;;23.20;60.80;;;;;;7869421;28;20661;-45
2022/03/06 16:40:56;;;;;;;3.53;2.40;;;23.20;60.90;;;;;;7868933;28;20205;-46
2022/03/06 16:44:42;;;;;;;4.80;2.63;;;23.20;61.00;;;;;;7869485;28;20256;-47
2022/03/06 16:48:28;;;;;;;4.30;2.80;;;23.20;61.00;;;;;;7869323;28;20205;-46
2022/03/06 16:52:14;;;;;;;6.10;2.88;;;23.10;61.00;;;;;;7868974;28;20188;-47
2022/03/06 16:55:59;;;;;;;5.32;3.05;;;23.10;61.10;;;;;;7869298;28;20180;-47
2022/03/06 16:59:45;;;;;;;5.97;2.90;;;23.00;61.20;;;;;;7869199;28;20623;-48
2022/03/06 17:03:31;;;;;;;6.05;3.38;;;22.90;61.10;;;;;;7858716;28;20252;-46
2022/03/06 17:07:17;;;;;;;5.10;2.67;;;23.00;61.20;;;;;;7838582;28;20193;-47
2022/03/06 17:11:02;;;;;;;7.03;3.08;;;22.90;61.20;;;;;;7837658;28;20198;-47
2022/03/06 17:14:48;;;;;;;4.82;2.75;;;22.90;61.20;;;;;;7838039;28;20181;-49
2022/03/06 17:18:33;;;;;;;5.32;2.92;;;22.90;61.40;;;;;;7837932;28;20184;-46
2022/03/06 17:22:19;;;;;;;15.65;3.67;;;22.80;61.20;;;;;;7837960;28;20221;-50
2022/03/06 17:26:04;;;;;;;26.00;4.65;;;22.80;61.10;;;;;;7837576;28;20304;-47
2022/03/06 17:29:50;;;;;;;32.70;4.75;;;22.70;61.50;;;;;;7837186;28;20206;-46
2022/03/06 17:33:35;;;;;;;37.33;5.05;;;22.70;61.40;;;;;;7837464;28;20636;-46
2022/03/06 17:37:21;;;;;;;45.65;5.85;;;22.60;61.50;;;;;;7837956;28;20185;-45
2022/03/06 17:41:07;;;;;;;43.03;5.70;;;22.60;61.50;;;;;;7848013;28;20550;-47
2022/03/06 17:44:53;;;;;;;58.90;6.00;;;22.50;61.40;;;;;;7842966;28;20547;-46
2022/03/06 17:48:38;;;;;;;51.42;6.13;;;22.50;61.50;;;;;;7842845;28;20206;-46
2022/03/06 17:52:24;;;;;;;48.03;6.35;;;22.50;61.50;;;;;;7842546;28;20198;-47
2022/03/06 17:56:09;;;;;;;48.80;7.70;;;22.40;61.60;;;;;;7842681;28;20183;-46
2022/03/06 17:59:55;;;;;;;44.63;5.65;;;22.40;61.60;;;;;;7843200;28;20666;-46
2022/03/06 18:03:42;;;;;;;40.78;5.80;;;22.30;61.50;;;;;;7842432;28;20224;-46
2022/03/06 18:07:27;;;;;;;49.90;6.97;;;22.30;61.30;;;;;;7843019;28;20271;-46
2022/03/06 18:11:15;;;;;;;31.48;5.78;;;22.20;61.70;;;;;;7840933;28;20230;-49
2022/03/06 18:15:00;;;;;;;34.13;5.38;;;22.20;62.20;;;;;;7841330;28;20249;-48
2022/03/06 18:18:45;;;;;;;33.13;5.28;;;22.30;62.40;;;;;;7862800;28;20181;-47
2022/03/06 18:22:31;;;;;;;36.55;5.63;;;22.30;62.30;;;;;;7871918;28;20205;-46
2022/03/06 18:26:18;;;;;;;40.90;5.88;;;22.30;62.50;;;;;;7871835;28;20177;-46
2022/03/06 18:30:05;;;;;;;31.25;5.55;;;22.30;62.60;;;;;;7871730;28;20197;-47
2022/03/06 18:33:51;;;;;;;27.52;5.50;;;22.40;62.50;;;;;;7871842;28;20686;-47
2022/03/06 18:37:37;;;;;;;34.63;6.35;;;22.50;62.50;;;;;;7871824;28;20566;-47
2022/03/06 18:41:23;;;;;;;35.78;4.93;;;22.50;62.40;;;;;;7871596;28;20201;-47
2022/03/06 18:45:08;;;;;;;22.08;4.88;;;22.60;62.40;;;;;;7866442;28;20182;-46
2022/03/06 18:48:54;;;;;;;26.98;4.53;;;22.60;62.30;;;;;;7841075;28;20209;-46
2022/03/06 18:52:39;;;;;;;23.27;5.22;;;22.70;62.40;;;;;;7839679;28;20271;-47
2022/03/06 18:56:25;;;;;;;30.70;6.13;;;22.70;62.40;;;;;;7841103;28;20247;-47
2022/03/06 19:00:13;;;;;;;28.10;4.90;;;22.70;62.40;;;;;;7848981;28;20260;-47
2022/03/06 19:03:59;;;;;;;14.07;4.90;;;22.70;62.40;;;;;;7857217;28;20217;-47
2022/03/06 19:07:45;;;;;;;15.68;4.80;;;22.70;62.50;;;;;;7853083;28;20272;-47
2022/03/06 19:11:31;;;;;;;15.40;4.35;;;22.70;62.40;;;;;;7839586;28;20194;-46
2022/03/06 19:15:17;;;;;;;25.38;5.82;;;22.70;62.40;;;;;;7860873;28;20252;-48
2022/03/06 19:19:04;;;;;;;21.45;5.30;;;22.60;62.30;;;;;;7870174;28;20182;-46
2022/03/06 19:22:49;;;;;;;17.02;4.80;;;22.60;62.10;;;;;;7870213;28;20706;-46
2022/03/06 19:26:35;;;;;;;28.27;5.05;;;22.60;62.10;;;;;;7870189;28;21135;-46
2022/03/06 19:30:20;;;;;;;18.67;4.90;;;22.50;61.90;;;;;;7869722;28;20207;-45
2022/03/06 19:34:06;;;;;;;17.35;5.07;;;22.50;61.80;;;;;;7862330;28;20676;-46
2022/03/06 19:37:52;;;;;;;22.50;5.20;;;22.40;62.00;;;;;;7838686;28;20170;-45